createdAt,value
2018-02-10T00:00:48.645Z,4.60
2018-02-10T00:03:15.695Z,4.50
2018-02-10T00:05:41.947Z,4.60
2018-02-10T00:08:08.936Z,4.50
2018-02-10T00:10:35.216Z,4.50
2018-02-10T00:13:01.496Z,4.50
2018-02-10T00:15:28.496Z,4.50
2018-02-10T00:17:55.010Z,4.50
2018-02-10T00:20:22.079Z,4.50
2018-02-10T00:22:48.376Z,4.40
2018-02-10T00:25:14.676Z,4.40
2018-02-10T00:27:40.928Z,4.40
2018-02-10T00:30:08.096Z,4.40
2018-02-10T00:32:34.349Z,4.40
2018-02-10T00:35:00.621Z,4.30
2018-02-10T00:37:27.627Z,4.30
2018-02-10T00:39:54.160Z,4.30
2018-02-10T00:42:20.411Z,4.30
2018-02-10T00:44:46.639Z,4.30
2018-02-10T00:47:12.893Z,4.30
2018-02-10T00:49:39.139Z,4.30
2018-02-10T00:52:05.394Z,4.30
2018-02-10T00:54:31.923Z,4.30
2018-02-10T00:56:58.196Z,4.30
2018-02-10T00:59:24.460Z,4.30
2018-02-10T01:01:51.496Z,4.30
2018-02-10T01:04:17.740Z,4.30
2018-02-10T01:06:43.974Z,4.20
2018-02-10T01:09:10.257Z,4.30
2018-02-10T01:11:36.508Z,4.30
2018-02-10T01:14:02.807Z,4.20
2018-02-10T01:16:29.358Z,4.30
2018-02-10T01:18:55.628Z,4.30
2018-02-10T01:21:21.899Z,4.30
2018-02-10T01:23:48.500Z,4.30
2018-02-10T01:26:15.488Z,4.30
2018-02-10T01:28:41.748Z,4.20
2018-02-10T01:31:08.028Z,4.30
2018-02-10T01:33:34.312Z,4.20
2018-02-10T01:36:01.392Z,4.20
2018-02-10T01:38:27.644Z,4.20
2018-02-10T01:40:53.910Z,4.20
2018-02-10T01:43:20.160Z,4.20
2018-02-10T01:45:48.431Z,4.10
2018-02-10T01:48:14.757Z,4.10
2018-02-10T01:50:41.024Z,4.10
2018-02-10T01:53:07.279Z,4.20
2018-02-10T01:55:34.259Z,4.10
2018-02-10T01:58:00.507Z,4.10
2018-02-10T02:00:26.792Z,4.10
2018-02-10T02:02:53.035Z,4.10
2018-02-10T02:05:19.267Z,4.10
2018-02-10T02:07:45.864Z,4.10
2018-02-10T02:10:12.908Z,4.10
2018-02-10T02:12:39.968Z,4.10
2018-02-10T02:15:07.318Z,4.10
2018-02-10T02:17:33.592Z,4.00
2018-02-10T02:19:59.856Z,4.10
2018-02-10T02:22:26.402Z,4.10
2018-02-10T02:24:52.643Z,4.10
2018-02-10T02:27:19.427Z,4.10
2018-02-10T02:29:45.944Z,4.10
2018-02-10T02:32:12.191Z,4.10
2018-02-10T02:34:38.536Z,4.10
2018-02-10T02:37:05.772Z,4.10
2018-02-10T02:39:32.032Z,4.10
2018-02-10T02:41:58.268Z,4.20
2018-02-10T02:44:24.864Z,4.20
2018-02-10T02:46:51.844Z,4.10
2018-02-10T02:49:19.000Z,4.10
2018-02-10T02:51:46.361Z,4.10
2018-02-10T02:54:13.351Z,4.10
2018-02-10T02:56:39.589Z,4.10
2018-02-10T02:59:06.226Z,4.20
2018-02-10T03:01:32.493Z,4.10
2018-02-10T03:03:58.747Z,4.10
2018-02-10T03:06:25.430Z,4.10
2018-02-10T03:08:51.687Z,4.10
2018-02-10T03:11:18.673Z,4.00
2018-02-10T03:13:45.285Z,4.00
2018-02-10T03:16:12.259Z,4.00
2018-02-10T03:18:39.244Z,4.00
2018-02-10T03:21:05.503Z,4.00
2018-02-10T03:23:31.813Z,4.00
2018-02-10T03:25:58.059Z,4.00
2018-02-10T03:28:24.807Z,4.00
2018-02-10T03:30:51.062Z,4.00
2018-02-10T03:33:17.325Z,4.10
2018-02-10T03:35:43.867Z,4.10
2018-02-10T03:38:10.848Z,4.10
2018-02-10T03:40:37.101Z,4.00
2018-02-10T03:43:04.128Z,4.00
2018-02-10T03:45:30.370Z,4.00
2018-02-10T03:47:56.611Z,4.00
2018-02-10T03:50:23.131Z,4.10
2018-02-10T03:52:49.411Z,4.00
2018-02-10T03:55:15.676Z,4.10
2018-02-10T04:07:27.291Z,4.10
2018-02-10T04:09:54.265Z,3.40
2018-02-10T04:12:20.916Z,3.40
2018-02-10T04:14:48.238Z,3.40
2018-02-10T04:17:14.488Z,3.50
2018-02-10T04:19:41.492Z,3.60
2018-02-10T04:22:08.030Z,3.60
2018-02-10T04:24:34.257Z,3.70
2018-02-10T04:27:00.500Z,3.80
2018-02-10T04:29:27.045Z,3.80
2018-02-10T04:31:53.316Z,3.80
2018-02-10T04:34:19.584Z,3.80
2018-02-10T04:36:46.132Z,3.90
2018-02-10T04:39:12.373Z,3.90
2018-02-10T04:41:40.148Z,3.90
2018-02-10T04:44:06.433Z,3.80
2018-02-10T04:46:32.696Z,4.00
2018-02-10T04:48:58.947Z,3.90
2018-02-10T04:51:25.551Z,4.00
2018-02-10T04:53:52.556Z,4.00
2018-02-10T04:56:18.820Z,4.00
2018-02-10T04:58:45.398Z,4.00
2018-02-10T05:01:12.387Z,4.00
2018-02-10T05:03:38.644Z,4.00
2018-02-10T05:06:04.936Z,4.00
2018-02-10T05:08:31.958Z,4.00
2018-02-10T05:10:58.200Z,4.00
2018-02-10T05:13:24.445Z,4.00
2018-02-10T05:15:50.740Z,4.00
2018-02-10T05:18:16.987Z,4.00
2018-02-10T05:20:43.758Z,4.00
2018-02-10T05:23:10.005Z,4.00
2018-02-10T05:25:36.240Z,4.00
2018-02-10T05:28:02.504Z,4.00
2018-02-10T05:30:28.736Z,4.00
2018-02-10T05:32:54.988Z,4.10
2018-02-10T05:35:21.260Z,4.10
2018-02-10T05:37:48.291Z,4.10
2018-02-10T05:40:14.530Z,4.10
2018-02-10T05:42:40.796Z,4.10
2018-02-10T05:45:07.784Z,4.20
2018-02-10T05:47:34.044Z,4.20
2018-02-10T05:50:00.593Z,4.20
2018-02-10T05:52:26.847Z,4.20
2018-02-10T05:54:53.118Z,4.20
2018-02-10T05:57:20.001Z,4.20
2018-02-10T05:59:46.236Z,4.20
2018-02-10T06:02:12.498Z,4.30
2018-02-10T06:04:40.172Z,4.20
2018-02-10T06:07:07.376Z,4.30
2018-02-10T06:09:33.716Z,4.20
2018-02-10T06:12:00.371Z,4.30
2018-02-10T06:14:27.474Z,4.30
2018-02-10T06:16:53.894Z,4.30
2018-02-10T06:19:21.354Z,4.30
2018-02-10T06:21:47.689Z,4.30
2018-02-10T06:24:13.944Z,4.30
2018-02-10T06:26:41.223Z,4.40
2018-02-10T06:29:07.483Z,4.40
2018-02-10T06:31:33.778Z,4.40
2018-02-10T06:34:00.049Z,4.40
2018-02-10T06:36:26.310Z,4.40
2018-02-10T06:38:52.554Z,4.40
2018-02-10T06:41:18.839Z,4.40
2018-02-10T06:43:45.093Z,4.40
2018-02-10T06:46:12.103Z,4.50
2018-02-10T06:48:38.357Z,4.40
2018-02-10T06:51:04.640Z,4.50
2018-02-10T06:53:31.765Z,4.50
2018-02-10T06:55:58.344Z,4.50
2018-02-10T06:58:26.592Z,4.60
2018-02-10T07:00:54.369Z,4.60
2018-02-10T07:03:20.771Z,4.60
2018-02-10T07:05:47.020Z,4.60
2018-02-10T07:08:13.264Z,4.60
2018-02-10T07:10:42.985Z,4.60
2018-02-10T07:13:13.333Z,4.70
2018-02-10T07:15:40.970Z,4.60
2018-02-10T07:18:08.228Z,4.60
2018-02-10T07:20:35.813Z,4.70
2018-02-10T07:23:02.124Z,4.70
2018-02-10T07:25:28.406Z,4.70
2018-02-10T07:27:54.708Z,4.80
2018-02-10T07:30:21.956Z,4.80
2018-02-10T07:32:48.220Z,4.80
2018-02-10T07:35:14.479Z,4.80
2018-02-10T07:37:40.748Z,4.90
2018-02-10T07:40:07.012Z,4.90
2018-02-10T07:42:33.269Z,4.90
2018-02-10T07:44:59.528Z,4.90
2018-02-10T07:47:25.796Z,4.90
2018-02-10T07:49:52.073Z,4.90
2018-02-10T07:52:18.316Z,4.90
2018-02-10T07:54:44.865Z,5.00
2018-02-10T07:57:11.135Z,5.00
2018-02-10T07:59:37.414Z,5.00
2018-02-10T08:02:03.693Z,5.00
2018-02-10T08:04:29.995Z,5.10
2018-02-10T08:06:56.248Z,5.10
2018-02-10T08:09:22.509Z,5.10
2018-02-10T08:11:48.740Z,5.10
2018-02-10T08:14:15.029Z,5.20
2018-02-10T08:16:42.281Z,5.20
2018-02-10T08:19:08.566Z,5.20
2018-02-10T08:21:34.828Z,5.20
2018-02-10T08:24:02.200Z,5.30
2018-02-10T08:26:28.485Z,5.30
2018-02-10T08:28:55.467Z,5.40
2018-02-10T08:31:22.747Z,5.30
2018-02-10T08:54:54.112Z,16.80
2018-02-10T10:05:26.092Z,16.60
2018-02-10T10:07:52.372Z,15.80
2018-02-10T10:10:19.366Z,14.90
2018-02-10T10:12:45.623Z,14.20
2018-02-10T10:15:11.915Z,13.50
2018-02-10T10:17:38.185Z,12.90
2018-02-10T10:20:04.500Z,12.20
2018-02-10T10:24:58.732Z,11.10
2018-02-10T10:27:25.049Z,10.70
2018-02-10T10:29:51.367Z,10.20
2018-02-10T10:32:18.433Z,9.80
2018-02-10T10:34:45.629Z,9.50
2018-02-10T10:37:12.322Z,9.20
2018-02-10T11:32:07.564Z,7.60
2018-02-10T12:20:58.999Z,10.80
2018-02-10T12:30:49.999Z,16.00
2018-02-10T12:33:16.330Z,16.80
2018-02-10T12:40:45.757Z,18.40
2018-02-10T12:45:39.961Z,17.80
2018-02-10T12:51:26.060Z,16.20
2018-02-10T12:53:53.992Z,15.40
2018-02-10T13:15:37.517Z,11.00
2018-02-10T13:20:31.722Z,10.40
2018-02-10T13:22:57.976Z,10.10
2018-02-10T13:25:24.225Z,9.80
2018-02-10T13:27:51.605Z,9.60
2018-02-10T13:30:18.585Z,9.30
2018-02-10T13:32:44.861Z,9.20
2018-02-10T13:35:11.857Z,8.90
2018-02-10T13:37:39.128Z,8.70
2018-02-10T13:40:05.362Z,8.60
2018-02-10T13:42:31.593Z,8.50
2018-02-10T13:47:25.928Z,8.20
2018-02-10T13:49:52.163Z,8.20
2018-02-10T13:52:19.173Z,8.00
2018-02-10T13:57:14.249Z,7.90
2018-02-10T14:02:08.453Z,7.80
2018-02-10T14:07:02.653Z,7.60
2018-02-10T14:09:28.903Z,7.50
2018-02-10T14:16:51.143Z,7.30
2018-02-10T14:41:53.589Z,7.00
2018-02-10T14:46:48.721Z,10.00
2018-02-10T14:49:15.059Z,6.90
2018-02-10T14:54:10.148Z,6.80
2018-02-10T14:59:04.619Z,6.60
2018-02-10T15:01:30.873Z,6.60
2018-02-10T15:08:53.073Z,6.50
2018-02-10T15:13:47.485Z,6.40
2018-02-10T15:16:13.759Z,6.40
2018-02-10T15:21:08.269Z,6.30
2018-02-10T15:44:24.715Z,6.10
2018-02-10T16:21:23.321Z,6.00
2018-02-10T16:36:10.119Z,5.90
2018-02-10T16:41:04.685Z,5.90
2018-02-10T16:53:24.649Z,5.80
2018-02-10T17:08:11.031Z,6.00
2018-02-10T17:18:01.295Z,6.10
2018-02-10T17:25:24.687Z,6.10
2018-02-10T17:27:51.493Z,6.10
2018-02-10T17:30:17.759Z,6.20
2018-02-10T17:47:33.523Z,6.20
2018-02-10T17:52:27.900Z,6.20
2018-02-10T17:57:22.378Z,6.20
2018-02-10T17:59:48.674Z,6.20
2018-02-10T18:07:11.752Z,6.20
2018-02-10T18:17:02.262Z,6.20
2018-02-10T18:19:28.532Z,6.20
2018-02-10T18:26:50.972Z,6.20
2018-02-10T18:34:14.695Z,6.20
2018-02-10T18:49:02.284Z,6.10
2018-02-10T18:58:53.272Z,6.10
2018-02-10T19:03:47.524Z,6.00
2018-02-10T19:06:13.766Z,6.00
2018-02-10T19:11:08.829Z,6.00
2018-02-10T19:13:35.256Z,6.00
2018-02-10T19:16:02.282Z,6.00
2018-02-10T19:18:29.635Z,6.00
2018-02-10T19:28:20.071Z,6.00
2018-02-10T19:30:46.335Z,6.00
2018-02-10T19:33:12.584Z,6.00
2018-02-10T19:35:38.811Z,6.00
2018-02-10T19:41:31.068Z,6.00
2018-02-10T19:43:57.327Z,6.00
2018-02-10T19:46:25.056Z,6.00
2018-02-10T19:53:48.140Z,6.00
2018-02-10T19:56:14.510Z,6.00
2018-02-10T19:58:41.912Z,6.00
2018-02-10T20:08:33.036Z,6.00
2018-02-10T20:11:00.102Z,6.00
2018-02-10T20:15:54.455Z,6.00
2018-02-10T20:18:20.924Z,6.00
2018-02-10T20:25:44.708Z,5.90
2018-02-10T20:30:38.936Z,5.90
2018-02-10T21:10:05.982Z,5.80
2018-02-10T21:19:56.980Z,5.80
2018-02-10T21:37:10.975Z,5.80
2018-02-10T22:04:17.687Z,5.80
2018-02-10T22:06:43.972Z,5.70
2018-02-10T22:11:38.273Z,5.70
2018-02-10T22:19:00.749Z,5.70
2018-02-10T22:28:51.241Z,5.70
2018-02-10T22:31:17.534Z,5.70
2018-02-10T22:33:44.710Z,5.70
2018-02-10T22:38:39.088Z,5.70
2018-02-10T22:41:06.348Z,5.60
2018-02-10T22:43:32.624Z,5.60
2018-02-10T22:45:58.888Z,5.70
2018-02-10T22:48:25.897Z,5.70
2018-02-10T22:50:52.155Z,5.70
2018-02-10T22:53:19.529Z,5.60
2018-02-10T22:57:19.596Z,5.60
2018-02-10T22:59:46.005Z,5.60
2018-02-10T23:02:12.271Z,5.60
2018-02-10T23:04:38.649Z,5.70
2018-02-10T23:07:05.004Z,5.70
2018-02-10T23:09:31.457Z,5.70
2018-02-10T23:11:57.982Z,5.70
2018-02-10T23:14:24.357Z,5.70
2018-02-10T23:21:46.528Z,5.70
2018-02-10T23:24:13.513Z,5.70
2018-02-10T23:26:40.109Z,5.70
2018-02-10T23:29:07.459Z,5.70
2018-02-10T23:36:29.829Z,5.70
2018-02-10T23:38:56.807Z,5.70
2018-02-10T23:41:23.264Z,5.80
2018-02-10T23:46:19.103Z,5.70
2018-02-10T23:48:45.789Z,5.70
2018-02-10T23:51:12.778Z,5.70
2018-02-10T23:53:39.112Z,5.80
2018-02-10T23:56:05.636Z,5.70
2018-02-10T23:58:31.994Z,5.80
